Time;durP1;ratioP1;P1;durP2;ratioP2;P2;SDS_P1;SDS_P2;PMS_P1;PMS_P2;Temp;Humidity;BMP_temperature;BMP_pressure;BME280_temperature;BME280_humidity;BME280_pressure;Samples;Min_cycle;Max_cycle;Signal;HPM_P1;HPM_P2
2021/11/10 00:00:27;;;;;;;0.10;0.10;;;;;;;13.46;64.48;102615.72;5027449;28;20127;-83
2021/11/10 00:02:53;;;;;;;0.10;0.10;;;;;;;13.49;64.71;102614.81;5030981;28;20079;-82
2021/11/10 00:05:21;;;;;;;0.30;0.30;;;;;;;13.49;64.72;102615.69;5018805;28;20077;-83
2021/11/10 00:07:47;;;;;;;0.30;0.30;;;;;;;13.50;64.87;102612.16;5028836;28;20033;-84
2021/11/10 00:10:15;;;;;;;0.30;0.30;;;;;;;13.52;64.43;102610.38;5022522;28;20049;-82
2021/11/10 00:12:42;;;;;;;0.20;0.20;;;;;;;13.52;64.87;102610.38;5045298;28;20034;-85
2021/11/10 00:15:09;;;;;;;0.03;0.03;;;;;;;13.54;64.71;102607.69;5022832;28;20029;-85
2021/11/10 00:17:36;;;;;;;0.10;0.10;;;;;;;13.52;64.02;102604.16;5012509;28;20080;-80
2021/11/10 00:20:05;;;;;;;0.40;0.40;;;;;;;13.52;64.52;102605.06;5016860;28;20132;-83
2021/11/10 00:22:31;;;;;;;0.55;0.55;;;;;;;13.51;63.97;102600.59;5025176;28;20072;-84
2021/11/10 00:24:58;;;;;;;0.95;0.95;;;;;;;13.50;64.02;102601.50;5027424;28;20052;-85
2021/11/10 00:27:24;;;;;;;0.10;0.10;;;;;;;13.48;63.99;102592.63;5021840;28;20026;-85
2021/11/10 00:29:50;;;;;;;0.85;0.85;;;;;;;13.49;64.40;102586.41;5023882;28;20033;-84
2021/11/10 00:32:17;;;;;;;0.10;0.10;;;;;;;13.46;64.33;102594.41;5021369;28;20029;-85
2021/11/10 00:34:43;;;;;;;0.10;0.10;;;;;;;13.44;64.28;102593.53;5026076;28;20473;-83
2021/11/10 00:37:10;;;;;;;0.10;0.10;;;;;;;13.45;64.05;102589.09;5027012;28;20112;-85
2021/11/10 00:39:36;;;;;;;0.40;0.40;;;;;;;13.45;64.18;102582.00;5028429;28;20038;-84
2021/11/10 00:42:03;;;;;;;0.10;0.10;;;;;;;13.45;63.95;102579.34;5025374;28;20163;-83
2021/11/10 00:44:29;;;;;;;0.52;0.52;;;;;;;13.43;64.23;102581.09;5026267;28;20484;-85
2021/11/10 00:46:55;;;;;;;0.80;0.68;;;;;;;13.41;63.35;102574.91;5025829;28;20452;-83
2021/11/10 00:49:22;;;;;;;0.00;0.00;;;;;;;13.44;63.87;102572.22;5023655;28;20034;-83
2021/11/10 00:51:48;;;;;;;0.10;0.10;;;;;;;13.47;64.14;102569.56;5025794;28;20370;-86
2021/11/10 00:54:15;;;;;;;0.15;0.15;;;;;;;13.46;63.68;102572.22;5018977;28;20057;-85
2021/11/10 00:56:41;;;;;;;1.00;0.40;;;;;;;13.48;63.39;102571.31;5018952;28;20499;-79
2021/11/10 00:59:07;;;;;;;0.20;0.20;;;;;;;13.49;63.98;102567.75;5025198;28;20034;-79
2021/11/10 01:01:34;;;;;;;0.80;0.40;;;;;;;13.47;63.59;102564.25;5026120;28;20032;-83
2021/11/10 01:04:01;;;;;;;0.10;0.10;;;;;;;13.46;63.65;102561.56;5024370;28;20029;-80
2021/11/10 01:06:28;;;;;;;0.30;0.30;;;;;;;13.42;63.48;102550.94;5025842;28;20540;-85
2021/11/10 01:08:55;;;;;;;0.20;0.20;;;;;;;13.38;62.90;102550.94;5027933;28;20384;-83
2021/11/10 01:11:21;;;;;;;0.20;0.20;;;;;;;13.38;63.41;102553.63;5025704;28;20036;-81
2021/11/10 01:13:47;;;;;;;0.22;0.22;;;;;;;13.39;63.21;102556.25;5015534;28;20757;-85
2021/11/10 01:16:14;;;;;;;0.20;0.20;;;;;;;13.37;63.15;102554.47;5018457;28;20048;-84
2021/11/10 01:18:40;;;;;;;2.92;2.05;;;;;;;13.40;63.42;102552.72;5026850;28;20038;-85
2021/11/10 01:21:06;;;;;;;0.60;0.60;;;;;;;13.34;62.95;102551.84;5031597;28;20055;-79
2021/11/10 01:23:33;;;;;;;0.17;0.17;;;;;;;13.39;63.16;102544.75;5026473;28;20049;-80
2021/11/10 01:25:59;;;;;;;0.30;0.30;;;;;;;13.40;63.15;102534.06;5022079;28;20042;-85
2021/11/10 01:28:25;;;;;;;0.10;0.10;;;;;;;13.41;63.53;102537.66;5025905;28;20068;-86
2021/11/10 01:30:51;;;;;;;0.55;0.55;;;;;;;13.42;63.45;102536.72;5025746;28;20569;-85
2021/11/10 01:33:18;;;;;;;0.10;0.10;;;;;;;13.38;62.89;102537.66;5022651;28;20077;-85
2021/11/10 01:35:44;;;;;;;0.00;0.00;;;;;;;13.34;63.09;102526.09;5025610;28;20032;-85
2021/11/10 01:38:10;;;;;;;2.60;0.85;;;;;;;13.33;63.14;102507.47;5029864;28;20032;-84
2021/11/10 01:40:36;;;;;;;0.17;0.17;;;;;;;13.29;62.72;102511.03;5025919;28;20512;-85
2021/11/10 01:43:07;;;;;;;0.55;0.55;;;;;;;13.28;63.13;102504.81;5028950;28;20044;-85
2021/11/10 01:45:34;;;;;;;0.10;0.10;;;;;;;13.24;63.11;102498.63;5028464;28;20030;-81
2021/11/10 01:48:00;;;;;;;0.10;0.10;;;;;;;13.20;63.02;102496.00;5025844;28;20025;-85
2021/11/10 01:50:26;;;;;;;0.10;0.10;;;;;;;13.14;63.23;102496.91;5022146;28;20029;-84
2021/11/10 01:52:52;;;;;;;1.38;1.27;;;;;;;13.08;63.56;102476.53;5022080;28;20033;-85
2021/11/10 01:55:19;;;;;;;0.10;0.10;;;;;;;13.03;63.17;102480.09;5022367;28;20037;-81
2021/11/10 01:57:46;;;;;;;0.45;0.45;;;;;;;13.05;63.79;102471.22;5018157;28;20035;-79
2021/11/10 02:02:53;;;;;;;0.10;0.10;;;;;;;13.00;63.86;102451.72;5067949;28;20404;-84
2021/11/10 02:05:20;;;;;;;0.10;0.10;;;;;;;12.93;63.06;102448.22;5074900;28;20091;-82
2021/11/10 02:07:47;;;;;;;0.30;0.30;;;;;;;12.84;63.60;102448.25;5047484;28;20009;-81
2021/11/10 02:10:19;;;;;;;0.10;0.10;;;;;;;12.76;63.35;102458.91;5047565;28;20095;-85
2021/11/10 02:12:46;;;;;;;0.20;0.20;;;;;;;12.67;63.61;102458.06;5043977;28;20060;-84
2021/11/10 02:15:16;;;;;;;0.50;0.50;;;;;;;12.57;63.61;102452.78;5044797;28;20030;-80
2021/11/10 02:17:46;;;;;;;0.10;0.10;;;;;;;12.48;63.48;102463.41;5043869;28;20029;-81
2021/11/10 02:20:13;;;;;;;0.22;0.22;;;;;;;12.44;64.33;102466.97;5037740;28;20033;-79
2021/11/10 02:22:40;;;;;;;0.75;0.75;;;;;;;12.38;64.81;102453.69;5040463;28;20534;-83
2021/11/10 02:25:08;;;;;;;0.15;0.15;;;;;;;12.42;65.10;102466.06;5043119;28;20026;-81
2021/11/10 02:27:36;;;;;;;0.10;0.10;;;;;;;12.46;64.94;102475.81;5035462;28;20476;-84
2021/11/10 02:30:08;;;;;;;0.10;0.10;;;;;;;12.54;64.67;102473.16;5039070;28;20034;-81
2021/11/10 02:32:35;;;;;;;0.70;0.65;;;;;;;12.54;65.19;102479.34;5039408;28;20060;-80
2021/11/10 02:35:02;;;;;;;0.03;0.03;;;;;;;12.60;64.57;102479.34;5051027;28;20189;-83
2021/11/10 02:37:29;;;;;;;0.50;0.50;;;;;;;12.62;64.70;102474.91;5038252;28;20386;-81
2021/11/10 02:39:55;;;;;;;0.10;0.10;;;;;;;12.67;64.49;102481.97;5049315;28;20063;-83
2021/11/10 02:42:22;;;;;;;0.38;0.38;;;;;;;12.63;64.79;102481.09;5051387;28;20506;-85
2021/11/10 02:44:51;;;;;;;0.90;0.52;;;;;;;12.66;64.48;102473.13;5050306;28;20055;-83
2021/11/10 02:47:18;;;;;;;2.53;0.85;;;;;;;12.68;64.76;102473.13;5048189;28;20033;-81
2021/11/10 02:49:45;;;;;;;0.25;0.25;;;;;;;12.67;64.31;102468.69;5045660;28;20037;-84
2021/11/10 02:52:18;;;;;;;0.85;0.85;;;;;;;12.71;64.57;102471.34;5045191;28;20024;-83
2021/11/10 02:54:48;;;;;;;0.10;0.10;;;;;;;12.70;64.63;102468.69;5043307;28;20037;-82
2021/11/10 02:57:14;;;;;;;0.13;0.13;;;;;;;12.71;64.46;102465.13;5041563;28;20373;-80
2021/11/10 02:59:41;;;;;;;0.20;0.20;;;;;;;12.71;64.39;102470.44;5044003;28;20120;-85
2021/11/10 03:02:07;;;;;;;0.30;0.30;;;;;;;12.69;63.57;102474.91;5042187;28;20029;-84
2021/11/10 03:04:43;;;;;;;0.10;0.10;;;;;;;12.74;63.84;102481.97;5046159;28;20396;-85
2021/11/10 03:07:10;;;;;;;0.20;0.20;;;;;;;12.69;64.09;102470.44;5036652;28;20037;-85
2021/11/10 03:09:37;;;;;;;0.10;0.10;;;;;;;12.72;63.86;102469.56;5034991;28;20088;-83
2021/11/10 03:12:05;;;;;;;0.43;0.43;;;;;;;12.74;64.32;102475.78;5045935;28;20119;-79
2021/11/10 03:14:33;;;;;;;0.10;0.10;;;;;;;12.70;63.93;102464.25;5028550;28;20386;-83
2021/11/10 03:17:02;;;;;;;0.75;0.50;;;;;;;12.71;63.49;102465.13;5038390;28;20095;-80
2021/11/10 03:19:28;;;;;;;0.20;0.20;;;;;;;12.69;63.76;102466.91;5028448;28;20080;-81
2021/11/10 03:21:55;;;;;;;1.35;1.27;;;;;;;12.67;63.26;102458.91;5035440;28;20045;-83
2021/11/10 03:24:21;;;;;;;0.30;0.30;;;;;;;12.64;63.22;102458.06;5022625;28;20026;-86
2021/11/10 03:26:47;;;;;;;1.17;0.73;;;;;;;12.66;63.26;102458.94;5030514;28;20033;-82
2021/11/10 03:29:14;;;;;;;0.30;0.30;;;;;;;12.60;63.33;102463.38;5027409;28;20045;-80
2021/11/10 03:31:40;;;;;;;0.20;0.20;;;;;;;12.61;63.19;102465.16;5034201;28;20112;-80
2021/11/10 03:34:08;;;;;;;0.82;0.82;;;;;;;12.57;63.20;102465.16;5025741;28;20536;-82
2021/11/10 03:36:35;;;;;;;0.20;0.20;;;;;;;12.59;62.88;102461.59;5021839;28;20176;-80
2021/11/10 03:39:03;;;;;;;0.35;0.35;;;;;;;12.51;63.55;102463.41;5027510;28;20041;-82
2021/11/10 03:41:29;;;;;;;0.55;0.55;;;;;;;12.49;62.69;102470.50;5035899;28;20073;-82
2021/11/10 03:43:55;;;;;;;0.43;0.43;;;;;;;12.50;62.96;102464.31;5036087;28;20456;-86
2021/11/10 03:46:23;;;;;;;0.15;0.15;;;;;;;12.45;63.13;102455.47;5031004;28;20037;-85
2021/11/10 03:48:50;;;;;;;7.82;1.60;;;;;;;12.48;62.98;102452.78;5032362;28;20058;-80
2021/11/10 03:51:16;;;;;;;1.65;1.55;;;;;;;12.45;62.91;102458.13;5027849;28;20052;-81
2021/11/10 03:53:52;;;;;;;0.45;0.45;;;;;;;12.48;62.93;102457.22;5032756;28;20156;-84
2021/11/10 03:56:29;;;;;;;0.10;0.10;;;;;;;12.47;63.23;102456.31;5030804;28;20038;-84
2021/11/10 03:59:05;;;;;;;0.10;0.10;;;;;;;12.47;62.70;102461.63;5025141;28;20440;-85
2021/11/10 04:01:34;;;;;;;0.30;0.30;;;;;;;12.38;62.78;102451.03;5036132;28;20037;-85
2021/11/10 04:04:03;;;;;;;0.38;0.38;;;;;;;12.35;62.71;102459.91;5024669;28;20124;-82
2021/11/10 04:06:30;;;;;;;0.20;0.20;;;;;;;12.33;63.68;102458.13;5028988;28;20033;-85
2021/11/10 04:08:57;;;;;;;0.38;0.38;;;;;;;12.29;63.01;102451.94;5027808;28;20021;-83
2021/11/10 04:11:24;;;;;;;0.10;0.10;;;;;;;12.28;63.07;102459.00;5034046;28;20100;-81
2021/11/10 04:13:51;;;;;;;0.52;0.52;;;;;;;12.28;63.14;102460.78;5033633;28;20033;-85
2021/11/10 04:16:22;;;;;;;0.20;0.20;;;;;;;12.24;63.04;102465.22;5030399;28;20109;-80
2021/11/10 04:18:51;;;;;;;0.85;0.85;;;;;;;12.26;63.14;102465.22;5032484;28;20456;-85
2021/11/10 04:21:18;;;;;;;0.60;0.60;;;;;;;12.27;63.80;102462.56;5035241;28;20118;-81
2021/11/10 04:23:47;;;;;;;0.75;0.75;;;;;;;12.25;63.61;102472.31;5036598;28;20055;-80
2021/11/10 04:26:14;;;;;;;0.40;0.40;;;;;;;12.21;63.03;102481.19;5033398;28;20033;-79
2021/11/10 04:28:40;;;;;;;0.20;0.20;;;;;;;12.21;63.58;102486.50;5019393;28;20061;-79
2021/11/10 04:31:06;;;;;;;0.20;0.20;;;;;;;12.19;63.58;102480.28;5035204;28;20037;-82
2021/11/10 04:33:32;;;;;;;0.10;0.10;;;;;;;12.20;63.07;102479.41;5026731;28;20053;-85
2021/11/10 04:35:59;;;;;;;0.20;0.20;;;;;;;12.21;63.63;102480.28;5022809;28;20076;-82
2021/11/10 04:38:25;;;;;;;1.50;1.40;;;;;;;12.13;63.13;102490.91;5029601;28;20029;-82
2021/11/10 04:40:52;;;;;;;0.10;0.10;;;;;;;12.12;62.93;102482.06;5037629;28;20045;-81
2021/11/10 04:43:18;;;;;;;0.82;0.82;;;;;;;12.16;63.10;102485.59;5037074;28;20079;-80
2021/11/10 04:45:46;;;;;;;0.10;0.10;;;;;;;12.16;62.95;102488.25;5029328;28;20655;-81
2021/11/10 04:48:12;;;;;;;1.88;1.77;;;;;;;12.12;62.88;102489.13;5035974;28;20485;-82
2021/11/10 04:50:42;;;;;;;0.50;0.50;;;;;;;12.14;62.90;102493.56;5048938;28;20396;-80
2021/11/10 04:53:09;;;;;;;0.10;0.10;;;;;;;12.14;62.94;102495.34;5048480;28;20392;-81
2021/11/10 04:55:35;;;;;;;2.22;1.25;;;;;;;12.15;63.22;102502.44;5032345;28;20029;-82
2021/11/10 04:58:02;;;;;;;1.15;1.05;;;;;;;12.17;63.27;102490.00;5026694;28;20038;-81
2021/11/10 05:00:28;;;;;;;0.10;0.10;;;;;;;12.19;63.62;102482.94;5031250;28;20040;-80
2021/11/10 05:02:54;;;;;;;0.25;0.25;;;;;;;12.17;63.47;102483.84;5049759;28;20170;-81
2021/11/10 05:05:21;;;;;;;0.57;0.57;;;;;;;12.18;63.01;102486.47;5047359;28;20024;-80
2021/11/10 05:07:49;;;;;;;0.40;0.40;;;;;;;12.22;62.94;102477.59;5040820;28;20047;-80
2021/11/10 05:10:16;;;;;;;0.10;0.10;;;;;;;12.20;63.10;102474.09;5033689;28;20104;-80
2021/11/10 05:12:43;;;;;;;1.23;1.23;;;;;;;12.20;62.89;102473.19;5027244;28;20061;-83
2021/11/10 05:15:10;;;;;;;0.40;0.40;;;;;;;12.19;62.64;102482.94;5024085;28;20029;-81
2021/11/10 05:17:37;;;;;;;0.25;0.25;;;;;;;12.18;62.75;102478.50;5023865;28;20102;-84
2021/11/10 05:20:04;;;;;;;0.08;0.08;;;;;;;12.11;62.95;102479.38;5019900;28;20034;-82
2021/11/10 05:22:30;;;;;;;0.10;0.10;;;;;;;12.11;63.10;102482.94;5037760;28;20110;-82
2021/11/10 05:24:56;;;;;;;1.42;0.52;;;;;;;12.11;62.61;102472.31;5026760;28;20029;-80
2021/11/10 05:27:22;;;;;;;0.10;0.10;;;;;;;12.14;62.76;102472.31;5026245;28;20049;-80
2021/11/10 05:29:48;;;;;;;1.75;0.77;;;;;;;12.15;62.85;102473.22;5032740;28;20488;-79
2021/11/10 05:32:14;;;;;;;0.20;0.20;;;;;;;12.18;63.10;102475.84;5034672;28;20030;-80
2021/11/10 05:34:40;;;;;;;4.85;2.92;;;;;;;12.16;63.08;102469.63;5024562;28;20094;-85
2021/11/10 05:37:07;;;;;;;0.10;0.10;;;;;;;12.14;62.52;102474.09;5027069;28;20026;-82
2021/11/10 05:39:33;;;;;;;0.45;0.38;;;;;;;12.11;62.23;102480.28;5036626;28;20423;-80
2021/11/10 05:41:59;;;;;;;0.50;0.50;;;;;;;12.12;62.48;102482.06;5019930;28;20038;-82
2021/11/10 05:44:25;;;;;;;0.75;0.73;;;;;;;12.10;62.39;102478.50;5026857;28;20029;-81
2021/11/10 05:46:51;;;;;;;0.40;0.40;;;;;;;12.01;62.01;102477.63;5034746;28;20068;-84
2021/11/10 05:49:18;;;;;;;0.10;0.10;;;;;;;12.03;62.23;102479.41;5037684;28;20036;-81
2021/11/10 05:51:44;;;;;;;0.85;0.77;;;;;;;12.02;62.68;102479.41;5027529;28;20030;-79
2021/11/10 05:54:10;;;;;;;0.65;0.65;;;;;;;12.05;61.89;102484.69;5017749;28;20041;-80
2021/11/10 05:56:39;;;;;;;0.95;0.95;;;;;;;12.00;62.37;102490.03;5024631;28;20029;-79
2021/11/10 05:59:06;;;;;;;0.30;0.30;;;;;;;11.97;61.94;102480.31;5032097;28;20535;-81
2021/11/10 06:01:35;;;;;;;0.22;0.22;;;;;;;11.91;61.22;102479.34;5020561;28;20034;-82
2021/11/10 06:04:02;;;;;;;0.63;0.63;;;;;;;11.90;61.42;102486.44;5019681;28;20549;-83
2021/11/10 06:06:28;;;;;;;0.30;0.30;;;;;;;11.90;61.99;102483.78;5025775;28;20068;-81
2021/11/10 06:08:55;;;;;;;0.17;0.17;;;;;;;11.89;61.89;102478.50;5016456;28;20029;-84
2021/11/10 06:11:21;;;;;;;0.20;0.20;;;;;;;11.86;61.63;102471.38;5030124;28;20567;-82
2021/11/10 06:13:48;;;;;;;0.17;0.17;;;;;;;11.75;60.45;102474.03;5024664;28;20037;-78
2021/11/10 06:16:14;;;;;;;1.33;1.10;;;;;;;11.75;61.06;102465.16;5038544;28;20038;-81
2021/11/10 06:18:40;;;;;;;0.10;0.10;;;;;;;11.65;60.33;102481.09;5031665;28;20431;-81
2021/11/10 06:21:07;;;;;;;0.70;0.70;;;;;;;11.69;60.68;102483.75;5026269;28;20067;-80
2021/11/10 06:23:33;;;;;;;0.22;0.22;;;;;;;11.70;61.40;102496.16;5021727;28;20045;-83
2021/11/10 06:25:59;;;;;;;0.47;0.47;;;;;;;11.67;60.30;102482.88;5017409;28;20495;-80
2021/11/10 06:28:25;;;;;;;4.38;1.20;;;;;;;11.69;61.15;102481.09;5025972;28;20064;-80
2021/11/10 06:30:52;;;;;;;0.65;0.57;;;;;;;11.64;60.77;102481.97;5032499;28;20033;-80
2021/11/10 06:33:18;;;;;;;0.43;0.38;;;;;;;11.64;60.66;102481.97;5024988;28;20523;-82
2021/11/10 06:35:44;;;;;;;1.00;1.00;;;;;;;11.69;60.68;102486.41;5017713;28;20026;-81
2021/11/10 06:38:10;;;;;;;0.68;0.68;;;;;;;11.70;61.18;102488.19;5031409;28;20397;-84
2021/11/10 06:40:36;;;;;;;0.20;0.20;;;;;;;11.69;61.25;102500.59;5024753;28;20037;-82
2021/11/10 06:43:03;;;;;;;0.20;0.20;;;;;;;11.71;60.94;102497.94;5022540;28;20045;-84
2021/11/10 06:45:30;;;;;;;0.75;0.75;;;;;;;11.72;60.55;102492.59;5020809;28;20399;-87
2021/11/10 06:47:56;;;;;;;1.75;0.68;;;;;;;11.73;61.27;102498.81;5026509;28;20116;-80
2021/11/10 06:50:22;;;;;;;0.10;0.10;;;;;;;11.73;60.70;102504.13;5022368;28;20048;-87
2021/11/10 06:52:48;;;;;;;0.35;0.35;;;;;;;11.73;60.85;102509.44;5027852;28;20040;-87
2021/11/10 06:55:15;;;;;;;0.50;0.50;;;;;;;11.75;61.13;102512.97;5032395;28;20408;-87
2021/11/10 06:57:41;;;;;;;0.20;0.20;;;;;;;11.74;60.96;102516.50;5033853;28;20033;-88
2021/11/10 07:00:10;;;;;;;0.10;0.10;;;;;;;11.76;60.72;102514.75;5032565;28;20096;-89
2021/11/10 07:02:37;;;;;;;0.80;0.80;;;;;;;11.79;61.12;102520.09;5030170;28;20107;-83
2021/11/10 07:05:04;;;;;;;0.10;0.10;;;;;;;11.81;61.33;102528.91;5019465;28;20054;-86
2021/11/10 07:07:31;;;;;;;0.40;0.40;;;;;;;11.82;61.70;102520.06;5021169;28;20105;-81
2021/11/10 07:09:57;;;;;;;0.22;0.22;;;;;;;11.83;60.98;102519.19;5023001;28;20032;-80
2021/11/10 07:12:23;;;;;;;0.10;0.10;;;;;;;11.82;61.31;102525.38;5035708;28;20068;-85
2021/11/10 07:14:49;;;;;;;0.50;0.50;;;;;;;11.78;61.49;102526.28;5034236;28;20036;-83
2021/11/10 07:17:16;;;;;;;0.63;0.63;;;;;;;11.85;61.16;102532.47;5024165;28;20030;-84
2021/11/10 07:19:42;;;;;;;0.10;0.10;;;;;;;11.85;61.38;102541.34;5017628;28;20048;-83
2021/11/10 07:22:08;;;;;;;0.45;0.43;;;;;;;11.84;61.17;102541.31;5015404;28;20249;-81
2021/11/10 07:24:34;;;;;;;0.30;0.30;;;;;;;11.86;61.36;102556.38;5019945;28;20034;-80
2021/11/10 07:27:01;;;;;;;0.40;0.40;;;;;;;11.85;60.87;102551.97;5024303;28;20029;-82
2021/11/10 07:29:28;;;;;;;0.82;0.82;;;;;;;11.89;60.94;102550.19;5020853;28;20025;-82
2021/11/10 07:31:55;;;;;;;0.10;0.10;;;;;;;11.91;61.28;102536.03;5022263;28;20055;-84
2021/11/10 07:34:21;;;;;;;0.35;0.35;;;;;;;11.95;60.84;102516.56;5019390;28;20490;-82
2021/11/10 07:36:47;;;;;;;0.45;0.45;;;;;;;11.95;61.08;102510.34;5015753;28;20026;-84
2021/11/10 07:39:13;;;;;;;0.55;0.22;;;;;;;11.98;60.66;102510.38;5031018;28;20036;-84
2021/11/10 07:41:40;;;;;;;1.23;0.95;;;;;;;12.00;60.88;102495.34;5018120;28;20117;-83
2021/11/10 07:44:10;;;;;;;1.15;1.13;;;;;;;11.99;60.36;102493.56;5016673;28;20030;-83
2021/11/10 07:46:36;;;;;;;0.17;0.17;;;;;;;12.03;61.04;102486.50;5016090;28;20095;-80
2021/11/10 07:49:03;;;;;;;0.10;0.10;;;;;;;11.98;60.33;102484.69;5019382;28;20049;-83
2021/11/10 07:51:29;;;;;;;3.25;3.08;;;;;;;11.98;60.63;102483.81;5018028;28;20129;-82
2021/11/10 07:53:55;;;;;;;0.20;0.20;;;;;;;12.01;60.79;102494.44;5034634;28;20492;-80
2021/11/10 07:56:22;;;;;;;0.10;0.10;;;;;;;12.02;60.88;102525.44;5034876;28;20478;-83
2021/11/10 07:58:48;;;;;;;2.08;1.98;;;;;;;12.08;60.81;102532.53;5034575;28;20025;-83
2021/11/10 08:01:15;;;;;;;0.10;0.10;;;;;;;12.07;60.80;102546.72;5034314;28;20083;-81
2021/11/10 08:03:41;;;;;;;0.50;0.50;;;;;;;12.07;60.42;102568.84;5034561;28;20026;-80
2021/11/10 08:06:07;;;;;;;0.40;0.40;;;;;;;12.07;60.89;102579.47;5035163;28;20034;-87
2021/11/10 08:08:33;;;;;;;0.60;0.60;;;;;;;12.11;60.57;102572.38;5021306;28;20049;-82
2021/11/10 08:11:02;;;;;;;0.25;0.25;;;;;;;12.11;60.87;102560.00;5027084;28;20164;-86
2021/11/10 08:13:29;;;;;;;0.45;0.35;;;;;;;12.10;61.09;102552.91;5031388;28;20044;-81
2021/11/10 08:15:57;;;;;;;0.43;0.43;;;;;;;12.19;60.57;102552.03;5033696;28;20040;-80
2021/11/10 08:18:23;;;;;;;1.60;1.55;;;;;;;12.22;60.67;102551.16;5034241;28;20075;-86
2021/11/10 08:20:50;;;;;;;0.32;0.32;;;;;;;12.23;60.73;102545.81;5034051;28;20478;-81
2021/11/10 08:23:21;;;;;;;0.10;0.10;;;;;;;12.25;60.47;102538.75;5034348;28;20040;-78
2021/11/10 08:25:49;;;;;;;0.20;0.20;;;;;;;12.28;60.42;102538.72;5019720;28;20060;-83
2021/11/10 08:28:15;;;;;;;0.55;0.55;;;;;;;12.32;60.55;102538.75;5027074;28;20195;-88
2021/11/10 08:30:41;;;;;;;0.10;0.10;;;;;;;12.29;60.71;102543.16;5023115;28;20493;-88
2021/11/10 08:33:07;;;;;;;6.78;1.02;;;;;;;12.28;60.10;102541.38;5019024;28;20385;-87
2021/11/10 08:35:34;;;;;;;0.75;0.73;;;;;;;12.28;59.82;102536.06;5029683;28;20036;-86
2021/11/10 08:38:00;;;;;;;0.75;0.75;;;;;;;12.27;60.25;102542.31;5019544;28;20025;-84
2021/11/10 08:40:26;;;;;;;0.80;0.80;;;;;;;12.27;59.84;102544.97;5034138;28;20041;-84
2021/11/10 08:42:53;;;;;;;0.20;0.20;;;;;;;12.21;60.12;102544.06;5033394;28;20080;-81
2021/11/10 08:45:25;;;;;;;0.77;0.77;;;;;;;12.27;60.29;102538.75;5019191;28;20037;-82
2021/11/10 08:47:53;;;;;;;1.65;1.50;;;;;;;12.26;59.69;102543.19;5020585;28;20069;-82
2021/11/10 08:50:22;;;;;;;13.05;2.38;;;;;;;12.33;59.88;102532.56;5033680;28;20432;-83
2021/11/10 08:52:49;;;;;;;0.03;0.03;;;;;;;12.31;60.05;102529.88;5033299;28;20123;-83
2021/11/10 08:55:17;;;;;;;3.92;2.30;;;;;;;12.33;60.19;102527.25;5026637;28;20041;-83
2021/11/10 08:57:44;;;;;;;0.22;0.22;;;;;;;12.39;60.28;102528.09;5032342;28;20120;-81
2021/11/10 09:00:14;;;;;;;0.13;0.13;;;;;;;12.44;60.46;102530.78;5033056;28;20083;-79
2021/11/10 09:02:40;;;;;;;1.45;1.13;;;;;;;12.41;59.85;102531.66;5023025;28;20108;-80
2021/11/10 09:05:08;;;;;;;0.10;0.10;;;;;;;12.40;59.38;102534.28;5016638;28;20445;-79
2021/11/10 09:07:35;;;;;;;1.00;1.00;;;;;;;12.44;59.90;102528.13;5018075;28;20057;-85
2021/11/10 09:10:04;;;;;;;0.28;0.28;;;;;;;12.51;59.57;102531.63;5023627;28;20090;-79
2021/11/10 09:12:31;;;;;;;1.98;1.85;;;;;;;12.55;59.12;102534.31;5017369;28;20405;-82
2021/11/10 09:14:58;;;;;;;1.50;1.50;;;;;;;12.66;59.69;102536.06;5024117;28;20062;-78
2021/11/10 09:17:24;;;;;;;0.30;0.30;;;;;;;12.67;59.31;102529.84;5024160;28;20029;-78
2021/11/10 09:19:50;;;;;;;0.13;0.13;;;;;;;12.68;58.57;102529.84;5017269;28;20033;-79
2021/11/10 09:22:17;;;;;;;0.25;0.25;;;;;;;12.65;57.52;102528.97;5023362;28;20037;-79
2021/11/10 09:24:44;;;;;;;1.63;1.55;;;;;;;12.68;58.26;102528.97;5018517;28;20045;-79
2021/11/10 09:27:11;;;;;;;0.30;0.30;;;;;;;12.72;58.04;102525.41;5018134;28;20025;-78
2021/11/10 09:29:37;;;;;;;5.60;1.23;;;;;;;12.79;57.93;102530.69;5028806;28;20116;-78
2021/11/10 09:32:04;;;;;;;0.20;0.20;;;;;;;12.82;57.12;102531.59;5027059;28;20484;-76
2021/11/10 09:34:32;;;;;;;0.82;0.82;;;;;;;12.90;57.28;102525.38;5014113;28;20050;-78
2021/11/10 09:36:58;;;;;;;1.08;0.98;;;;;;;12.98;57.62;102527.13;5027037;28;20353;-77
2021/11/10 09:39:25;;;;;;;0.20;0.20;;;;;;;13.02;57.19;102524.47;5021385;23;20034;-84
2021/11/10 09:41:53;;;;;;;3.45;2.60;;;;;;;13.10;57.57;102527.09;5010355;28;20068;-86
2021/11/10 09:44:21;;;;;;;0.10;0.10;;;;;;;13.24;57.40;102519.03;5011399;28;20022;-87
2021/11/10 09:46:49;;;;;;;0.10;0.10;;;;;;;13.26;57.10;102519.94;5011040;28;20042;-86
2021/11/10 09:49:16;;;;;;;0.77;0.77;;;;;;;13.29;56.64;102516.38;5000489;28;20031;-82
2021/11/10 09:51:47;;;;;;;1.13;1.10;;;;;;;13.29;56.43;102511.03;4991179;28;20077;-84
2021/11/10 09:54:13;;;;;;;1.15;0.80;;;;;;;13.31;56.06;102525.22;4989330;28;20080;-88
2021/11/10 09:56:42;;;;;;;0.10;0.10;;;;;;;13.30;55.98;102518.16;4989004;28;20034;-85
2021/11/10 09:59:08;;;;;;;0.82;0.80;;;;;;;13.33;55.32;102528.75;4990067;28;20022;-85
2021/11/10 10:01:37;;;;;;;1.13;1.05;;;;;;;13.34;55.47;102520.75;4988879;28;20041;-84
2021/11/10 10:04:05;;;;;;;0.93;0.93;;;;;;;13.36;55.07;102529.63;4968266;28;20031;-83
2021/11/10 10:06:32;;;;;;;0.10;0.10;;;;;;;13.40;55.01;102530.53;4970724;28;20041;-85
2021/11/10 10:08:59;;;;;;;0.28;0.28;;;;;;;13.41;54.80;102533.19;4983276;28;20465;-82
2021/11/10 10:11:41;;;;;;;0.77;0.77;;;;;;;13.59;55.29;102532.22;4985289;28;20122;-86
2021/11/10 10:14:07;;;;;;;0.40;0.40;;;;;;;13.49;54.61;102530.47;4989375;28;20560;-87
2021/11/10 10:16:35;;;;;;;0.10;0.10;;;;;;;13.58;54.58;102534.88;4991630;28;20031;-85
2021/11/10 10:19:11;;;;;;;2.22;2.13;;;;;;;13.62;54.54;102536.66;4990637;28;20019;-86
2021/11/10 10:21:42;;;;;;;0.85;0.85;;;;;;;13.69;55.08;102542.81;4991299;28;20088;-85
2021/11/10 10:24:11;;;;;;;0.47;0.47;;;;;;;13.71;55.14;102538.38;4994415;28;20049;-85
2021/11/10 10:26:37;;;;;;;0.10;0.10;;;;;;;13.73;54.73;102539.22;4995232;28;20030;-85
2021/11/10 10:29:09;;;;;;;0.68;0.68;;;;;;;13.71;53.94;102530.38;4993227;28;20065;-86
2021/11/10 10:31:37;;;;;;;6.53;1.97;;;;;;;13.84;54.70;102526.72;4985272;28;20029;-86
2021/11/10 10:34:10;;;;;;;0.40;0.40;;;;;;;13.82;54.12;102531.19;4989249;28;20076;-86
2021/11/10 10:36:39;;;;;;;1.10;1.10;;;;;;;13.85;54.61;102522.31;4987786;28;20030;-85
2021/11/10 10:39:09;;;;;;;0.60;0.52;;;;;;;13.91;54.37;102523.13;4994078;28;20026;-86
2021/11/10 10:41:40;;;;;;;0.20;0.20;;;;;;;13.93;54.03;102519.56;4995021;28;20088;-85
2021/11/10 10:44:11;;;;;;;1.05;1.05;;;;;;;14.02;54.53;102524.84;4992582;28;20026;-86
2021/11/10 10:46:40;;;;;;;0.67;0.67;;;;;;;14.03;53.78;102537.25;4993649;28;20034;-87
2021/11/10 10:51:53;;;;;;;1.10;0.88;;;;;;;14.16;54.02;102522.06;5104400;27;20913;-86
2021/11/10 10:54:28;;;;;;;0.25;0.25;;;;;;;14.22;53.98;102525.56;5106918;28;20482;-86
2021/11/10 10:56:59;;;;;;;1.38;1.27;;;;;;;14.18;54.47;102526.50;5101700;28;20395;-86
2021/11/10 10:59:26;;;;;;;3.20;1.25;;;;;;;14.18;53.54;102522.94;5100453;28;20021;-86
2021/11/10 11:01:54;;;;;;;2.17;0.85;;;;;;;14.22;53.43;102527.34;5093364;28;20115;-86
2021/11/10 11:04:24;;;;;;;1.90;0.82;;;;;;;14.27;54.14;102522.88;5097029;28;20383;-86
2021/11/10 11:09:46;;;;;;;0.17;0.17;;;;;;;14.31;53.67;102527.25;5159683;22;20406;-82
2021/11/10 11:17:53;;;;;;;0.20;0.20;;;;;;;14.37;53.61;102516.53;5090799;27;20389;-82
2021/11/10 11:20:46;;;;;;;0.73;0.70;;;;;;;14.43;53.39;102512.03;5050275;28;20048;-80
2021/11/10 11:23:20;;;;;;;0.93;0.90;;;;;;;14.30;52.81;102505.97;5051167;28;20039;-80
2021/11/10 11:25:47;;;;;;;0.60;0.60;;;;;;;14.34;52.82;102502.34;5051066;28;20036;-80
2021/11/10 11:28:15;;;;;;;1.00;1.00;;;;;;;14.38;53.57;102498.75;5050963;28;20112;-81
2021/11/10 11:30:57;;;;;;;0.20;0.20;;;;;;;14.41;53.41;102496.06;5050838;28;20039;-81
2021/11/10 11:33:26;;;;;;;0.10;0.10;;;;;;;14.42;53.38;102507.59;5050392;28;20041;-83
2021/11/10 11:35:56;;;;;;;0.30;0.30;;;;;;;14.45;53.50;102502.25;5050761;28;20446;-83
2021/11/10 11:38:24;;;;;;;1.13;1.13;;;;;;;14.46;53.82;102509.38;5050574;28;20043;-86